createdAt,value
2018-05-24T00:00:07.967Z,3.00
2018-05-24T00:01:08.210Z,3.40
2018-05-24T00:02:08.459Z,7.80
2018-05-24T00:03:08.701Z,4.60
2018-05-24T00:04:08.944Z,3.00
2018-05-24T00:05:09.191Z,6.30
2018-05-24T00:06:09.433Z,6.00
2018-05-24T00:07:09.677Z,5.40
2018-05-24T00:08:09.923Z,2.70
2018-05-24T00:09:10.166Z,2.40
2018-05-24T00:10:10.408Z,7.40
2018-05-24T00:11:10.654Z,3.10
2018-05-24T00:12:10.898Z,8.90
2018-05-24T00:13:11.143Z,4.00
2018-05-24T00:14:11.392Z,2.30
2018-05-24T00:15:11.635Z,3.40
2018-05-24T00:16:11.877Z,3.90
2018-05-24T00:17:12.121Z,5.20
2018-05-24T00:18:12.365Z,5.90
2018-05-24T00:19:12.605Z,4.50
2018-05-24T00:20:12.851Z,4.00
2018-05-24T00:21:13.099Z,6.00
2018-05-24T00:22:13.337Z,5.40
2018-05-24T00:23:13.582Z,3.60
2018-05-24T00:24:13.825Z,3.00
2018-05-24T00:25:14.069Z,3.20
2018-05-24T00:26:14.311Z,3.60
2018-05-24T00:27:14.554Z,3.30
2018-05-24T00:28:14.799Z,3.10
2018-05-24T00:29:15.041Z,3.90
2018-05-24T00:30:15.336Z,4.50
2018-05-24T00:31:15.538Z,3.20
2018-05-24T00:32:15.777Z,5.30
2018-05-24T00:33:16.014Z,3.10
2018-05-24T00:34:16.258Z,3.10
2018-05-24T00:35:16.498Z,4.10
2018-05-24T00:36:16.747Z,9.30
2018-05-24T00:37:16.989Z,3.50
2018-05-24T00:38:17.230Z,4.00
2018-05-24T00:39:17.472Z,4.10
2018-05-24T00:40:17.715Z,6.10
2018-05-24T00:41:17.957Z,5.00
2018-05-24T00:42:18.190Z,4.80
2018-05-24T00:43:18.434Z,4.10
2018-05-24T00:44:18.677Z,4.40
2018-05-24T00:45:18.919Z,3.40
2018-05-24T00:46:19.161Z,4.00
2018-05-24T00:47:19.403Z,4.80
2018-05-24T00:48:19.656Z,4.50
2018-05-24T00:49:19.887Z,4.90
2018-05-24T00:50:20.146Z,3.60
2018-05-24T00:51:20.384Z,3.50
2018-05-24T00:52:20.630Z,10.50
2018-05-24T00:53:20.875Z,3.40
2018-05-24T00:54:21.116Z,7.00
2018-05-24T00:55:21.361Z,4.60
2018-05-24T00:56:21.605Z,4.90
2018-05-24T00:57:21.847Z,4.60
2018-05-24T00:58:22.098Z,4.20
2018-05-24T00:59:22.337Z,3.90
2018-05-24T01:00:22.580Z,4.80
2018-05-24T01:01:22.824Z,5.30
2018-05-24T01:02:23.072Z,6.60
2018-05-24T01:03:23.311Z,5.40
2018-05-24T01:04:23.552Z,4.40
2018-05-24T01:05:23.793Z,5.60
2018-05-24T01:06:24.038Z,8.20
2018-05-24T01:07:24.283Z,7.20
2018-05-24T01:08:24.520Z,4.40
2018-05-24T01:09:24.761Z,5.70
2018-05-24T01:10:25.005Z,5.00
2018-05-24T01:11:25.247Z,6.50
2018-05-24T01:12:25.490Z,4.50
2018-05-24T01:13:25.733Z,7.50
2018-05-24T01:14:25.974Z,4.60
2018-05-24T01:15:26.245Z,4.40
2018-05-24T01:16:26.458Z,7.20
2018-05-24T01:17:26.702Z,6.90
2018-05-24T01:18:26.944Z,5.50
2018-05-24T01:19:27.187Z,5.80
2018-05-24T01:20:27.430Z,6.20
2018-05-24T01:21:27.671Z,7.90
2018-05-24T01:22:27.914Z,6.90
2018-05-24T01:23:28.171Z,6.50
2018-05-24T01:24:28.400Z,7.30
2018-05-24T01:25:28.641Z,6.00
2018-05-24T01:26:28.886Z,8.70
2018-05-24T01:27:29.127Z,6.50
2018-05-24T01:28:29.370Z,6.80
2018-05-24T01:29:29.613Z,6.00
2018-05-24T01:30:29.857Z,6.50
2018-05-24T01:31:30.098Z,6.00
2018-05-24T01:32:30.342Z,7.00
2018-05-24T01:33:30.584Z,7.00
2018-05-24T01:34:30.826Z,6.50
2018-05-24T01:35:31.066Z,10.30
2018-05-24T01:36:31.313Z,6.20
2018-05-24T01:37:31.555Z,7.80
2018-05-24T01:38:31.798Z,8.30
2018-05-24T01:39:32.039Z,6.30
2018-05-24T01:40:32.282Z,7.00
2018-05-24T01:41:32.526Z,6.60
2018-05-24T01:42:32.770Z,6.90
2018-05-24T01:43:33.012Z,9.80
2018-05-24T01:44:33.256Z,7.00
2018-05-24T01:45:33.498Z,9.10
2018-05-24T01:46:33.745Z,8.50
2018-05-24T01:47:33.979Z,8.20
2018-05-24T01:48:34.225Z,7.60
2018-05-24T01:49:34.467Z,6.80
2018-05-24T01:50:34.705Z,11.40
2018-05-24T01:51:34.948Z,7.70
2018-05-24T01:52:35.191Z,9.80
2018-05-24T01:53:35.432Z,9.50
2018-05-24T01:54:35.677Z,9.70
2018-05-24T01:55:35.916Z,8.30
2018-05-24T01:56:36.164Z,11.20
2018-05-24T01:57:36.398Z,8.90
2018-05-24T01:58:36.642Z,8.00
2018-05-24T01:59:36.887Z,6.90
2018-05-24T02:00:37.130Z,8.20
2018-05-24T02:01:37.374Z,8.10
2018-05-24T02:02:37.628Z,9.90
2018-05-24T02:03:37.854Z,8.50
2018-05-24T02:04:38.096Z,7.10
2018-05-24T02:05:38.340Z,7.20
2018-05-24T02:06:38.583Z,6.20
2018-05-24T02:07:38.825Z,8.50
2018-05-24T02:08:39.090Z,7.90
2018-05-24T02:09:39.336Z,8.20
2018-05-24T02:10:39.581Z,8.40
2018-05-24T02:11:39.811Z,7.70
2018-05-24T02:12:40.060Z,7.00
2018-05-24T02:13:40.293Z,8.40
2018-05-24T02:14:40.535Z,10.10
2018-05-24T02:15:40.778Z,12.40
2018-05-24T02:16:41.017Z,10.60
2018-05-24T02:17:41.258Z,7.70
2018-05-24T02:18:41.501Z,7.30
2018-05-24T02:19:41.742Z,7.20
2018-05-24T02:20:41.984Z,7.30
2018-05-24T02:21:42.227Z,18.10
2018-05-24T02:22:42.470Z,8.70
2018-05-24T02:23:42.712Z,7.60
2018-05-24T02:24:42.957Z,7.60
2018-05-24T02:25:43.197Z,7.10
2018-05-24T02:26:43.440Z,7.70
2018-05-24T02:27:43.684Z,6.20
2018-05-24T02:28:43.934Z,6.60
2018-05-24T02:29:44.167Z,7.50
2018-05-24T02:30:44.408Z,6.30
2018-05-24T02:31:44.655Z,7.50
2018-05-24T02:32:44.899Z,10.30
2018-05-24T02:33:45.147Z,8.10
2018-05-24T02:34:45.452Z,9.50
2018-05-24T02:35:45.638Z,7.00
2018-05-24T02:36:45.857Z,8.50
2018-05-24T02:37:46.101Z,6.80
2018-05-24T02:38:46.342Z,8.90
2018-05-24T02:39:46.588Z,7.80
2018-05-24T02:40:46.828Z,5.60
2018-05-24T02:41:47.074Z,8.30
2018-05-24T02:42:47.317Z,7.20
2018-05-24T02:43:47.557Z,6.80
2018-05-24T02:44:47.799Z,10.60
2018-05-24T02:45:48.038Z,7.20
2018-05-24T02:46:48.278Z,6.50
2018-05-24T02:47:48.520Z,7.80
2018-05-24T02:48:48.760Z,5.90
2018-05-24T02:49:49.005Z,10.90
2018-05-24T02:50:49.251Z,7.50
2018-05-24T02:51:49.492Z,7.50
2018-05-24T02:52:49.734Z,7.40
2018-05-24T02:53:49.975Z,6.10
2018-05-24T02:54:50.221Z,6.70
2018-05-24T02:55:50.460Z,6.20
2018-05-24T02:56:50.700Z,7.90
2018-05-24T02:57:50.944Z,8.50
2018-05-24T02:58:51.190Z,9.30
2018-05-24T02:59:51.428Z,7.40
2018-05-24T03:00:51.674Z,8.30
2018-05-24T03:01:51.914Z,7.20
2018-05-24T03:02:52.156Z,8.80
2018-05-24T03:03:52.394Z,8.70
2018-05-24T03:04:52.635Z,7.60
2018-05-24T03:05:52.881Z,7.30
2018-05-24T03:06:53.123Z,9.00
2018-05-24T03:07:53.370Z,7.90
2018-05-24T03:08:53.606Z,8.70
2018-05-24T03:09:53.847Z,9.90
2018-05-24T03:11:00.693Z,8.50
2018-05-24T03:11:54.514Z,9.30
2018-05-24T03:12:54.756Z,9.10
2018-05-24T03:13:55.001Z,11.20
2018-05-24T03:14:55.238Z,7.80
2018-05-24T03:15:55.480Z,8.70
2018-05-24T03:16:55.723Z,9.00
2018-05-24T03:17:55.963Z,7.50
2018-05-24T03:18:56.203Z,7.40
2018-05-24T03:19:56.448Z,9.40
2018-05-24T03:20:56.673Z,11.00
2018-05-24T03:21:56.914Z,10.60
2018-05-24T03:22:57.152Z,7.60
2018-05-24T03:23:57.396Z,6.60
2018-05-24T03:24:57.639Z,6.90
2018-05-24T03:25:57.881Z,8.70
2018-05-24T03:26:58.120Z,6.30
2018-05-24T03:27:58.363Z,6.50
2018-05-24T03:28:58.604Z,9.00
2018-05-24T03:29:58.845Z,7.10
2018-05-24T03:30:59.088Z,6.00
2018-05-24T03:31:59.330Z,6.60
2018-05-24T03:32:59.571Z,6.90
2018-05-24T03:33:59.814Z,7.60
2018-05-24T03:35:00.054Z,10.60
2018-05-24T03:36:00.294Z,9.60
2018-05-24T03:37:00.545Z,7.80
2018-05-24T03:38:00.783Z,7.50
2018-05-24T03:39:01.025Z,7.50
2018-05-24T03:40:01.269Z,7.00
2018-05-24T03:41:01.509Z,6.50
2018-05-24T03:42:01.759Z,8.10
2018-05-24T03:43:01.997Z,6.70
2018-05-24T03:44:02.241Z,6.10
2018-05-24T03:45:02.484Z,9.40
2018-05-24T03:46:02.724Z,6.00
2018-05-24T03:47:02.967Z,7.60
2018-05-24T03:48:03.209Z,7.60
2018-05-24T03:49:03.450Z,9.00
2018-05-24T03:50:03.694Z,5.70
2018-05-24T03:51:03.934Z,7.50
2018-05-24T03:52:04.188Z,9.00
2018-05-24T03:53:04.419Z,8.10
2018-05-24T03:54:04.660Z,6.80
2018-05-24T03:55:04.901Z,5.90
2018-05-24T03:56:05.214Z,5.70
2018-05-24T03:57:05.387Z,6.10
2018-05-24T03:58:05.632Z,7.20
2018-05-24T03:59:05.877Z,6.70
2018-05-24T04:00:06.115Z,6.70
2018-05-24T04:01:06.359Z,6.90
2018-05-24T04:02:06.599Z,6.20
2018-05-24T04:03:06.842Z,7.40
2018-05-24T04:04:07.084Z,6.30
2018-05-24T04:05:15.944Z,6.50
2018-05-24T04:06:07.699Z,7.00
2018-05-24T04:07:07.941Z,5.60
2018-05-24T04:08:08.183Z,7.30
2018-05-24T04:09:08.430Z,10.30
2018-05-24T04:10:08.664Z,5.10
2018-05-24T04:11:08.902Z,13.80
2018-05-24T04:12:09.150Z,6.30
2018-05-24T04:13:09.393Z,6.90
2018-05-24T04:14:09.637Z,5.70
2018-05-24T04:15:09.879Z,6.20
2018-05-24T04:16:10.122Z,5.30
2018-05-24T04:17:10.369Z,6.30
2018-05-24T04:18:10.611Z,7.10
2018-05-24T04:19:10.855Z,5.80
2018-05-24T04:20:11.105Z,5.80
2018-05-24T04:21:11.340Z,6.90
2018-05-24T04:22:11.582Z,5.90
2018-05-24T04:23:11.854Z,6.30
2018-05-24T04:24:12.069Z,5.90
2018-05-24T04:25:12.312Z,6.50
2018-05-24T04:26:12.557Z,7.30
2018-05-24T04:27:12.794Z,5.40
2018-05-24T04:28:13.036Z,5.80
2018-05-24T04:29:13.281Z,7.10
2018-05-24T04:30:13.529Z,5.40
2018-05-24T04:31:13.801Z,7.10
2018-05-24T04:32:14.011Z,7.50
2018-05-24T04:33:14.253Z,4.90
2018-05-24T04:34:14.496Z,5.50
2018-05-24T04:35:14.739Z,5.90
2018-05-24T04:36:14.985Z,5.40
2018-05-24T04:37:15.228Z,5.50
2018-05-24T04:38:15.480Z,9.40
2018-05-24T04:39:15.713Z,6.30
2018-05-24T04:40:15.956Z,6.70
2018-05-24T04:41:16.198Z,6.50
2018-05-24T04:42:16.441Z,7.70
2018-05-24T04:43:16.683Z,6.00
2018-05-24T04:44:16.924Z,8.00
2018-05-24T04:45:17.170Z,5.30
2018-05-24T04:46:17.414Z,7.00
2018-05-24T04:47:17.657Z,5.70
2018-05-24T04:48:17.898Z,6.40
2018-05-24T04:49:18.146Z,5.30
2018-05-24T04:50:18.385Z,8.20
2018-05-24T04:51:18.628Z,7.20
2018-05-24T04:52:18.965Z,5.50
2018-05-24T04:53:19.115Z,5.20
2018-05-24T04:54:19.359Z,7.70
2018-05-24T04:55:19.601Z,5.00
2018-05-24T04:56:19.843Z,7.60
2018-05-24T04:57:20.081Z,7.60
2018-05-24T04:58:20.318Z,6.20
2018-05-24T04:59:20.560Z,5.80
2018-05-24T05:00:20.803Z,7.10
2018-05-24T05:01:21.047Z,6.60
2018-05-24T05:02:21.290Z,8.40
2018-05-24T05:03:21.534Z,5.90
2018-05-24T05:04:21.778Z,6.10
2018-05-24T05:05:22.021Z,9.10
2018-05-24T05:06:22.262Z,7.40
2018-05-24T05:07:22.504Z,7.40
2018-05-24T05:08:22.748Z,6.90
2018-05-24T05:09:22.993Z,6.90
2018-05-24T05:10:23.230Z,11.90
2018-05-24T05:11:38.374Z,7.60
2018-05-24T05:12:23.711Z,10.80
2018-05-24T05:13:24.034Z,18.90
2018-05-24T05:14:24.194Z,12.70
2018-05-24T05:15:24.438Z,12.30
2018-05-24T05:16:24.691Z,9.10
2018-05-24T05:17:24.923Z,11.40
2018-05-24T05:18:25.176Z,6.80
2018-05-24T05:19:25.439Z,6.90
2018-05-24T05:20:25.652Z,6.70
2018-05-24T05:21:25.902Z,8.80
2018-05-24T05:22:26.137Z,7.80
2018-05-24T05:23:26.488Z,9.20
2018-05-24T05:24:26.626Z,6.30
2018-05-24T05:25:26.863Z,8.30
2018-05-24T05:26:27.090Z,11.10
2018-05-24T05:27:27.332Z,7.30
2018-05-24T05:28:27.573Z,9.20
2018-05-24T05:29:27.820Z,7.90
2018-05-24T05:30:28.052Z,8.40
2018-05-24T05:31:28.298Z,7.70
2018-05-24T05:32:28.528Z,7.10
2018-05-24T05:33:28.773Z,6.80
2018-05-24T05:34:29.020Z,9.50
2018-05-24T05:35:29.253Z,6.70
2018-05-24T05:36:29.481Z,7.90
2018-05-24T05:37:29.731Z,7.30
2018-05-24T05:38:29.964Z,7.40
2018-05-24T05:39:30.206Z,7.70
2018-05-24T05:40:30.443Z,8.00
2018-05-24T05:41:30.687Z,9.60
2018-05-24T05:42:30.932Z,9.10
2018-05-24T05:43:31.175Z,7.90
2018-05-24T05:44:31.408Z,9.70
2018-05-24T05:45:31.669Z,9.50
2018-05-24T05:46:31.897Z,9.40
2018-05-24T05:47:32.154Z,12.40
2018-05-24T05:48:32.385Z,8.90
2018-05-24T05:49:32.630Z,9.20
2018-05-24T05:50:32.864Z,8.70
2018-05-24T05:51:33.100Z,11.30
2018-05-24T05:52:33.351Z,7.80
2018-05-24T05:53:33.579Z,8.50
2018-05-24T05:54:33.822Z,7.60
2018-05-24T05:55:34.071Z,8.40
2018-05-24T05:56:34.299Z,13.20
2018-05-24T05:57:34.543Z,8.40
2018-05-24T05:58:34.791Z,8.70
2018-05-24T05:59:35.014Z,8.70
2018-05-24T06:00:35.259Z,9.20
2018-05-24T06:01:35.525Z,8.40
2018-05-24T06:02:35.731Z,9.10
2018-05-24T06:03:35.978Z,8.70
2018-05-24T06:04:36.209Z,11.80
2018-05-24T06:05:36.458Z,9.10
2018-05-24T06:06:36.703Z,7.60
2018-05-24T06:07:36.952Z,9.30
2018-05-24T06:08:37.195Z,10.70
2018-05-24T06:09:37.522Z,10.40
2018-05-24T06:10:37.681Z,10.90
2018-05-24T06:11:47.543Z,8.70
2018-05-24T06:12:38.152Z,10.60
2018-05-24T06:13:38.399Z,8.90
2018-05-24T06:14:38.643Z,9.30
2018-05-24T06:15:38.878Z,10.40
2018-05-24T06:16:39.125Z,9.70
2018-05-24T06:17:39.368Z,8.80
2018-05-24T06:18:39.613Z,8.10
2018-05-24T06:19:39.855Z,8.80
2018-05-24T06:20:40.098Z,10.00
2018-05-24T06:21:40.389Z,9.70
2018-05-24T06:22:40.581Z,10.70
2018-05-24T06:23:40.826Z,8.70
2018-05-24T06:24:41.062Z,7.70
2018-05-24T06:25:41.307Z,12.70
2018-05-24T06:26:41.551Z,8.00
2018-05-24T06:27:41.798Z,11.30
2018-05-24T06:28:42.030Z,9.90
2018-05-24T06:29:42.281Z,9.00
2018-05-24T06:30:42.528Z,9.80
2018-05-24T06:31:42.774Z,14.40
2018-05-24T06:32:43.010Z,8.30
2018-05-24T06:33:43.249Z,8.60
2018-05-24T06:34:43.498Z,10.30
2018-05-24T06:35:43.744Z,8.80
2018-05-24T06:36:43.994Z,11.70
2018-05-24T06:37:44.235Z,10.20
2018-05-24T06:38:44.481Z,9.60
2018-05-24T06:39:44.729Z,9.80
2018-05-24T06:40:44.961Z,8.80
2018-05-24T06:41:45.217Z,15.40
2018-05-24T06:42:45.455Z,12.00
2018-05-24T06:43:45.705Z,8.90
2018-05-24T06:44:45.946Z,11.70
2018-05-24T06:45:46.193Z,9.70
2018-05-24T06:46:46.451Z,8.40
2018-05-24T06:47:46.673Z,8.10
2018-05-24T06:48:46.920Z,11.90
2018-05-24T06:49:47.166Z,9.00
2018-05-24T06:50:47.416Z,7.40
2018-05-24T06:51:47.648Z,9.00
2018-05-24T06:52:47.911Z,9.50
2018-05-24T06:53:48.201Z,11.90
2018-05-24T06:54:48.415Z,8.50
2018-05-24T06:55:48.642Z,8.60
2018-05-24T06:56:48.895Z,8.60
2018-05-24T06:57:49.144Z,9.20
2018-05-24T06:58:49.389Z,9.90
2018-05-24T06:59:49.714Z,10.20
2018-05-24T07:00:49.881Z,9.10
2018-05-24T07:01:50.126Z,14.70
2018-05-24T07:02:50.370Z,11.60
2018-05-24T07:03:50.621Z,9.40
2018-05-24T07:04:50.862Z,12.00
2018-05-24T07:05:51.159Z,11.10
2018-05-24T07:06:51.347Z,9.70
2018-05-24T07:07:51.590Z,10.90
2018-05-24T07:08:51.832Z,10.40
2018-05-24T07:09:52.074Z,10.90
2018-05-24T07:10:52.322Z,10.70
2018-05-24T07:11:52.572Z,10.70
2018-05-24T07:12:52.813Z,9.90
2018-05-24T07:13:53.063Z,12.00
2018-05-24T07:14:53.295Z,10.40
2018-05-24T07:15:53.540Z,10.10
2018-05-24T07:16:53.796Z,10.30
2018-05-24T07:17:54.025Z,10.30
2018-05-24T07:18:54.270Z,11.40
2018-05-24T07:19:54.515Z,9.60
2018-05-24T07:20:54.753Z,9.10
2018-05-24T07:21:54.988Z,9.90
2018-05-24T07:22:55.232Z,9.30
2018-05-24T07:23:55.474Z,9.50
2018-05-24T07:24:55.726Z,9.00
2018-05-24T07:25:55.955Z,12.20
2018-05-24T07:26:56.201Z,12.90
2018-05-24T07:27:56.448Z,10.40
2018-05-24T07:28:56.691Z,9.90
2018-05-24T07:29:56.937Z,9.70
2018-05-24T07:30:57.188Z,9.30
2018-05-24T07:31:57.423Z,13.30
2018-05-24T07:32:57.669Z,9.20
2018-05-24T07:33:57.910Z,9.80
2018-05-24T07:34:58.157Z,9.10
2018-05-24T07:35:58.404Z,10.10
2018-05-24T07:36:58.640Z,10.20
2018-05-24T07:37:58.884Z,10.00
2018-05-24T07:38:59.117Z,9.90
2018-05-24T07:39:59.361Z,13.40
2018-05-24T07:40:59.605Z,10.40
2018-05-24T07:41:59.848Z,11.00
2018-05-24T07:43:00.084Z,12.90
2018-05-24T07:44:00.327Z,10.20
2018-05-24T07:45:00.596Z,10.50
2018-05-24T07:46:00.806Z,10.40
2018-05-24T07:47:01.048Z,11.10
2018-05-24T07:48:01.293Z,10.20
2018-05-24T07:49:01.538Z,12.20
2018-05-24T07:50:01.786Z,13.10
2018-05-24T07:51:02.020Z,11.00
2018-05-24T07:52:02.267Z,12.30
2018-05-24T07:53:02.505Z,11.40
2018-05-24T07:54:02.748Z,11.00
2018-05-24T07:55:02.993Z,13.30
2018-05-24T07:56:03.235Z,14.80
2018-05-24T07:57:03.480Z,17.10
2018-05-24T07:58:03.725Z,13.30
2018-05-24T07:59:03.969Z,12.30
2018-05-24T08:00:04.211Z,11.70
2018-05-24T08:01:04.457Z,14.90
2018-05-24T08:02:04.707Z,16.30
2018-05-24T08:03:04.945Z,14.50
2018-05-24T08:04:05.185Z,13.80
2018-05-24T08:05:05.424Z,13.10
2018-05-24T08:06:05.671Z,13.60
2018-05-24T08:07:05.918Z,15.70
2018-05-24T08:08:06.158Z,13.30
2018-05-24T08:09:06.403Z,14.20
2018-05-24T08:10:06.659Z,14.30
2018-05-24T08:11:06.889Z,12.90
2018-05-24T08:12:07.134Z,14.00
2018-05-24T08:13:07.376Z,16.10
2018-05-24T08:14:07.621Z,12.90
2018-05-24T08:15:07.873Z,13.60
2018-05-24T08:16:08.114Z,15.40
2018-05-24T08:17:08.360Z,13.50
2018-05-24T08:18:08.605Z,12.80
2018-05-24T08:19:08.857Z,12.20
2018-05-24T08:20:09.095Z,13.30
2018-05-24T08:21:09.342Z,12.70
2018-05-24T08:22:09.575Z,15.20
2018-05-24T08:23:09.821Z,13.90
2018-05-24T08:24:10.067Z,14.50
2018-05-24T08:25:10.317Z,12.50
2018-05-24T08:26:10.558Z,14.20
2018-05-24T08:27:10.813Z,12.90
2018-05-24T08:28:11.043Z,13.30
2018-05-24T08:29:11.288Z,12.50
2018-05-24T08:30:11.530Z,13.10
2018-05-24T08:31:11.778Z,17.00
2018-05-24T08:32:12.021Z,13.00
2018-05-24T08:33:12.271Z,13.00
2018-05-24T08:34:12.517Z,13.80
2018-05-24T08:35:12.761Z,13.80
2018-05-24T08:36:13.005Z,15.60
2018-05-24T08:37:13.246Z,15.40
2018-05-24T08:38:13.490Z,15.30
2018-05-24T08:39:13.735Z,14.60
2018-05-24T08:40:13.978Z,14.80
2018-05-24T08:41:14.224Z,15.60
2018-05-24T08:42:14.461Z,18.30
2018-05-24T08:43:14.704Z,15.40
2018-05-24T08:44:14.948Z,17.70
2018-05-24T08:45:15.191Z,15.90
2018-05-24T08:46:15.433Z,14.80
2018-05-24T08:47:15.758Z,16.80
2018-05-24T08:48:15.923Z,16.60
2018-05-24T08:49:16.162Z,16.10
2018-05-24T08:50:16.412Z,18.40
2018-05-24T08:51:16.656Z,18.50
2018-05-24T08:52:16.897Z,16.10
2018-05-24T08:53:17.201Z,16.10
2018-05-24T08:54:17.385Z,16.10
2018-05-24T08:55:17.632Z,16.30
2018-05-24T08:56:17.873Z,15.80
2018-05-24T08:57:18.114Z,15.00
2018-05-24T08:58:18.361Z,13.50
2018-05-24T08:59:18.608Z,14.40
2018-05-24T09:00:18.862Z,14.60
2018-05-24T09:01:19.151Z,15.80
2018-05-24T09:02:19.348Z,14.20
2018-05-24T09:03:19.592Z,17.70
2018-05-24T09:04:19.836Z,15.60
2018-05-24T09:05:20.081Z,16.80
2018-05-24T09:06:20.323Z,16.90
2018-05-24T09:07:20.565Z,17.60
2018-05-24T09:08:20.812Z,17.40
2018-05-24T09:09:21.058Z,18.50
2018-05-24T09:10:21.302Z,17.20
2018-05-24T09:11:21.546Z,17.50
2018-05-24T09:12:21.790Z,18.70
2018-05-24T09:13:22.035Z,18.10
2018-05-24T09:14:22.277Z,18.10
2018-05-24T09:15:22.523Z,18.20
2018-05-24T09:16:22.763Z,18.00
2018-05-24T09:17:23.005Z,20.80
2018-05-24T09:18:23.249Z,24.30
2018-05-24T09:19:23.498Z,20.10
2018-05-24T09:20:23.737Z,21.30
2018-05-24T09:21:23.977Z,23.10
2018-05-24T09:22:24.228Z,22.80
2018-05-24T09:23:24.466Z,23.30
2018-05-24T09:24:24.714Z,22.50
2018-05-24T09:25:24.959Z,21.30
2018-05-24T09:26:25.204Z,22.60
2018-05-24T09:27:25.447Z,20.80
2018-05-24T09:28:25.694Z,21.40
2018-05-24T09:29:25.960Z,20.60
2018-05-24T09:30:26.191Z,21.00
2018-05-24T09:31:26.432Z,20.10
2018-05-24T09:32:26.678Z,20.90
2018-05-24T09:33:26.922Z,19.70
2018-05-24T09:34:27.166Z,17.80
2018-05-24T09:35:27.412Z,17.20
2018-05-24T09:36:27.655Z,17.10
2018-05-24T09:37:27.901Z,16.90
2018-05-24T09:38:28.145Z,17.70
2018-05-24T09:39:28.391Z,18.00
2018-05-24T09:40:28.634Z,17.10
2018-05-24T09:41:28.878Z,17.80
2018-05-24T09:42:29.122Z,16.10
2018-05-24T09:43:29.369Z,16.60
2018-05-24T09:44:29.615Z,17.20
2018-05-24T09:45:29.859Z,17.30
2018-05-24T09:46:30.106Z,17.30
2018-05-24T09:47:30.357Z,15.90
2018-05-24T09:48:30.602Z,16.30
2018-05-24T09:49:30.848Z,16.10
2018-05-24T09:50:31.098Z,16.00
2018-05-24T09:51:31.343Z,16.90
2018-05-24T09:52:31.592Z,15.70
2018-05-24T09:53:31.840Z,16.50
2018-05-24T09:54:32.085Z,16.90
2018-05-24T09:55:32.335Z,17.10
2018-05-24T09:56:32.578Z,17.00
2018-05-24T09:57:32.822Z,16.50
2018-05-24T09:58:33.069Z,16.10
2018-05-24T09:59:33.313Z,16.20
2018-05-24T10:00:33.559Z,15.30
2018-05-24T10:01:33.810Z,17.20
2018-05-24T10:02:34.054Z,17.80
2018-05-24T10:03:34.300Z,19.00
2018-05-24T10:04:34.641Z,18.20
2018-05-24T10:05:34.792Z,18.30
2018-05-24T10:06:35.040Z,17.40
2018-05-24T10:07:35.285Z,18.00
2018-05-24T10:08:35.538Z,17.30
2018-05-24T10:09:35.779Z,17.60
2018-05-24T10:10:36.064Z,17.50
2018-05-24T10:11:36.266Z,16.70
2018-05-24T10:12:36.517Z,16.10
2018-05-24T10:13:36.758Z,15.30
2018-05-24T10:14:37.008Z,14.50
2018-05-24T10:15:37.250Z,14.00
2018-05-24T10:16:37.667Z,13.50
2018-05-24T10:17:37.745Z,13.40
2018-05-24T10:18:37.991Z,13.20
2018-05-24T10:19:38.244Z,11.30
2018-05-24T10:20:38.487Z,11.40
2018-05-24T10:21:38.732Z,11.10
2018-05-24T10:22:38.979Z,10.20
2018-05-24T10:23:39.224Z,10.60
2018-05-24T10:24:39.471Z,10.70
2018-05-24T10:25:39.719Z,11.10
2018-05-24T10:26:39.965Z,10.60
2018-05-24T10:27:40.209Z,9.90
2018-05-24T10:28:40.459Z,10.00
2018-05-24T10:29:40.707Z,9.90
2018-05-24T10:30:40.953Z,10.10
2018-05-24T10:31:41.196Z,10.20
2018-05-24T10:32:41.444Z,11.00
2018-05-24T10:33:41.695Z,11.20
2018-05-24T10:34:41.941Z,11.50
2018-05-24T10:35:42.186Z,11.50
2018-05-24T10:36:42.432Z,10.70
2018-05-24T10:37:42.680Z,11.20
2018-05-24T10:38:42.925Z,12.40
2018-05-24T10:39:43.171Z,12.00
2018-05-24T10:40:43.425Z,13.00
2018-05-24T10:41:43.666Z,12.80
2018-05-24T10:42:43.914Z,13.60
2018-05-24T10:43:44.162Z,14.00
2018-05-24T10:44:44.414Z,14.30
2018-05-24T10:45:44.657Z,15.00
2018-05-24T10:46:44.900Z,17.50
2018-05-24T10:47:45.146Z,18.00
2018-05-24T10:48:45.392Z,18.40
2018-05-24T10:49:45.639Z,18.00
2018-05-24T10:50:45.882Z,20.20
2018-05-24T10:51:46.131Z,21.00
2018-05-24T10:52:46.373Z,21.10
2018-05-24T10:53:46.619Z,21.70
2018-05-24T10:54:46.867Z,25.30
2018-05-24T10:55:47.111Z,21.20
2018-05-24T10:56:47.414Z,23.10
2018-05-24T10:57:47.600Z,23.80
2018-05-24T10:58:47.845Z,24.40
2018-05-24T10:59:48.099Z,26.50
2018-05-24T11:00:48.334Z,26.70
2018-05-24T11:01:48.580Z,29.00
2018-05-24T11:02:48.822Z,24.10
2018-05-24T11:03:49.076Z,25.80
2018-05-24T11:04:49.319Z,27.40
2018-05-24T11:05:49.561Z,25.40
2018-05-24T11:06:49.813Z,25.00
2018-05-24T11:07:50.054Z,25.30
2018-05-24T11:08:50.302Z,25.00
2018-05-24T11:09:50.547Z,24.70
2018-05-24T11:10:50.794Z,26.10
2018-05-24T11:11:51.037Z,27.00
2018-05-24T11:12:51.278Z,25.40
2018-05-24T11:13:51.524Z,26.60
2018-05-24T11:14:51.769Z,27.70
2018-05-24T11:15:52.038Z,27.30
2018-05-24T11:16:52.283Z,30.40
2018-05-24T11:17:52.528Z,30.10
2018-05-24T11:18:52.773Z,27.90
2018-05-24T11:19:53.020Z,25.70
2018-05-24T11:20:53.261Z,25.90
2018-05-24T11:21:53.512Z,27.10
2018-05-24T11:22:53.753Z,26.20
2018-05-24T11:23:54.011Z,26.30
2018-05-24T11:24:54.255Z,25.40
2018-05-24T11:25:54.503Z,29.50
2018-05-24T11:26:54.746Z,25.40
2018-05-24T11:27:54.990Z,31.30
2018-05-24T11:28:55.237Z,24.50
2018-05-24T11:29:55.487Z,24.70
2018-05-24T11:30:55.797Z,24.30
2018-05-24T11:31:56.162Z,25.60
2018-05-24T11:32:56.355Z,27.90
2018-05-24T11:33:56.602Z,24.10
2018-05-24T11:34:56.877Z,25.50
2018-05-24T11:35:57.179Z,24.90
2018-05-24T11:36:57.503Z,23.20
2018-05-24T11:37:57.671Z,24.80
2018-05-24T11:38:57.938Z,25.40
2018-05-24T11:39:58.213Z,24.40
2018-05-24T11:40:58.462Z,25.10
2018-05-24T11:41:58.732Z,25.20
2018-05-24T11:42:58.976Z,26.10
2018-05-24T11:43:59.223Z,26.20
2018-05-24T11:44:59.468Z,28.20
2018-05-24T11:45:59.711Z,26.80
2018-05-24T11:47:00.120Z,28.20
2018-05-24T11:48:00.370Z,33.90
2018-05-24T11:49:00.617Z,32.90
2018-05-24T11:50:00.863Z,36.80
2018-05-24T11:51:01.105Z,33.90
2018-05-24T11:52:01.355Z,35.00
2018-05-24T11:53:01.595Z,36.60
2018-05-24T11:54:01.840Z,38.00
2018-05-24T11:55:02.085Z,37.50
2018-05-24T11:56:02.327Z,36.70
2018-05-24T11:57:02.574Z,36.80
2018-05-24T11:58:02.816Z,34.70
2018-05-24T11:59:03.061Z,33.70
2018-05-24T12:00:03.312Z,33.70
2018-05-24T12:01:03.549Z,33.30
2018-05-24T12:02:03.795Z,31.50
2018-05-24T12:03:04.040Z,30.00
2018-05-24T12:04:04.284Z,31.60
2018-05-24T12:05:04.530Z,30.90
2018-05-24T12:06:04.776Z,31.70
2018-05-24T12:07:05.044Z,30.40
2018-05-24T12:08:05.267Z,29.10
2018-05-24T12:09:05.513Z,31.30
2018-05-24T12:10:05.758Z,31.80
2018-05-24T12:11:06.003Z,30.10
2018-05-24T12:12:06.248Z,32.00
2018-05-24T12:13:06.496Z,34.20
2018-05-24T12:14:06.740Z,31.70
2018-05-24T12:15:07.045Z,33.60
2018-05-24T12:16:07.304Z,33.10
2018-05-24T12:17:07.548Z,34.20
2018-05-24T12:18:07.794Z,35.10
2018-05-24T12:19:08.040Z,35.00
2018-05-24T12:20:08.285Z,35.30
2018-05-24T12:21:08.532Z,35.80
2018-05-24T12:22:08.778Z,35.70
2018-05-24T12:23:09.023Z,35.90
2018-05-24T12:24:09.268Z,33.60
2018-05-24T12:25:09.520Z,34.40
2018-05-24T12:26:09.760Z,31.70
2018-05-24T12:27:09.997Z,32.60
2018-05-24T12:28:10.242Z,33.40
2018-05-24T12:29:10.523Z,32.70
2018-05-24T12:30:10.736Z,30.80
2018-05-24T12:31:10.983Z,31.50
2018-05-24T12:32:11.230Z,31.80
2018-05-24T12:33:11.484Z,31.80
2018-05-24T12:34:11.729Z,31.90
2018-05-24T12:35:12.061Z,31.40
2018-05-24T12:36:12.214Z,31.10
2018-05-24T12:37:12.461Z,32.00
2018-05-24T12:38:12.708Z,31.00
2018-05-24T12:39:12.959Z,31.70
2018-05-24T12:40:13.204Z,30.70
2018-05-24T12:41:13.449Z,32.30
2018-05-24T12:42:13.691Z,32.40
2018-05-24T12:43:13.936Z,33.00
2018-05-24T12:44:14.184Z,32.20
2018-05-24T12:45:14.431Z,33.50
2018-05-24T12:46:14.679Z,32.60
2018-05-24T12:47:14.925Z,32.00
2018-05-24T12:48:15.172Z,35.00
2018-05-24T12:49:15.421Z,34.80
2018-05-24T12:50:15.667Z,34.20
2018-05-24T12:51:15.913Z,36.70
2018-05-24T12:52:16.158Z,35.30
2018-05-24T12:53:16.407Z,34.70
2018-05-24T12:54:16.651Z,34.30
2018-05-24T12:55:16.897Z,33.80
2018-05-24T12:56:17.145Z,31.70
2018-05-24T12:57:17.395Z,31.70
2018-05-24T12:58:17.638Z,30.30
2018-05-24T12:59:17.891Z,29.10
2018-05-24T13:00:18.141Z,33.70
2018-05-24T13:01:18.385Z,29.90
2018-05-24T13:02:18.634Z,30.30
2018-05-24T13:03:18.881Z,27.80
2018-05-24T13:04:19.141Z,26.70
2018-05-24T13:05:19.404Z,28.20
2018-05-24T13:06:19.605Z,30.70
2018-05-24T13:07:19.861Z,31.50
2018-05-24T13:08:20.108Z,27.90